Breeze Hill, South Carolina
Current Conditions -  °F | °C
As of 10:53 PM on Wednesday 28 Jan 2015 (Local Time) from KDNL Reporting Station
Clear Clear  
Wind Chill:   Ceiling: Unl
Heat Index:   Visibility: 10mi
Dew Point: -6°   Wind: 5mph
Humidity: 45%   Direction: 130°SE
Pressure: 30.33"   Gusts: NA
Location:  33.5159°N, 81.8379°W
Report Text: KDNL 290353Z AUTO 13004KT 10SM CLR 06/M06 A3033 RMK AO2 SLP272 T00561056 $
Loading
Personal Weather Stations






























Interactive Weather Map New forecast layout! Learn more

10-Day Weather Forecast

Advertisements
Track Severe Weather on mobile